createdAt,value
2022-11-27T00:00:46.467Z,64.36
2022-11-27T00:03:33.430Z,64.87
2022-11-27T00:06:24.377Z,65.21
2022-11-27T00:09:15.748Z,65.60
2022-11-27T00:12:03.062Z,65.71
2022-11-27T00:14:54.649Z,65.24
2022-11-27T00:17:42.777Z,65.11
2022-11-27T00:20:30.091Z,65.31
2022-11-27T00:23:16.907Z,64.75
2022-11-27T00:26:07.177Z,64.52
2022-11-27T00:28:54.257Z,64.31
2022-11-27T00:31:41.571Z,64.38
2022-11-27T00:34:28.348Z,63.96
2022-11-27T00:37:15.786Z,63.78
2022-11-27T00:40:02.430Z,63.72
2022-11-27T00:42:50.882Z,63.71
2022-11-27T00:45:37.682Z,63.80
2022-11-27T00:48:24.750Z,64.05
2022-11-27T00:51:14.440Z,64.42
2022-11-27T00:54:02.059Z,65.25
2022-11-27T00:56:48.963Z,64.87
2022-11-27T00:59:37.702Z,64.03
2022-11-27T01:02:24.651Z,63.81
2022-11-27T01:05:11.987Z,63.85
2022-11-27T01:07:58.931Z,63.80
2022-11-27T01:10:54.556Z,63.86
2022-11-27T01:13:42.935Z,64.07
2022-11-27T01:16:33.056Z,63.87
2022-11-27T01:19:19.969Z,63.90
2022-11-27T01:22:07.273Z,63.94
2022-11-27T01:24:54.379Z,64.00
2022-11-27T01:27:41.787Z,64.03
2022-11-27T01:30:28.927Z,64.16
2022-11-27T01:33:18.167Z,64.12
2022-11-27T01:36:07.733Z,64.01
2022-11-27T01:38:55.486Z,64.00
2022-11-27T01:41:43.120Z,63.75
2022-11-27T01:44:51.162Z,64.10
2022-11-27T01:47:44.710Z,64.68
2022-11-27T01:50:38.840Z,64.62
2022-11-27T01:53:26.300Z,64.59
2022-11-27T01:56:14.328Z,64.82
2022-11-27T01:59:02.575Z,65.21
2022-11-27T02:01:50.004Z,65.43
2022-11-27T02:04:37.128Z,66.07
2022-11-27T02:07:26.147Z,66.11
2022-11-27T02:10:14.927Z,65.33
2022-11-27T02:13:06.763Z,65.51
2022-11-27T02:16:01.995Z,65.51
2022-11-27T02:18:57.387Z,65.22
2022-11-27T02:21:48.308Z,65.08
2022-11-27T02:24:56.402Z,65.45
2022-11-27T02:28:11.261Z,65.48
2022-11-27T02:31:07.092Z,65.81
2022-11-27T02:34:00.443Z,65.46
2022-11-27T02:36:54.416Z,65.50
2022-11-27T02:39:49.794Z,65.68
2022-11-27T02:42:40.834Z,65.58
2022-11-27T02:45:33.893Z,65.76
2022-11-27T02:48:31.236Z,65.80
2022-11-27T02:51:22.170Z,66.00
2022-11-27T02:54:12.929Z,65.71
2022-11-27T02:57:03.703Z,65.94
2022-11-27T02:59:52.602Z,65.59
2022-11-27T03:02:44.359Z,65.79
2022-11-27T03:05:39.010Z,65.55
2022-11-27T03:08:33.914Z,65.80
2022-11-27T03:11:21.021Z,65.35
2022-11-27T03:14:11.317Z,65.21
2022-11-27T03:17:06.734Z,64.64
2022-11-27T03:19:55.895Z,64.13
2022-11-27T03:22:44.851Z,63.74
2022-11-27T03:25:31.853Z,63.92
2022-11-27T03:28:19.242Z,63.87
2022-11-27T03:31:06.439Z,63.72
2022-11-27T03:33:55.157Z,63.61
2022-11-27T03:36:41.681Z,63.50
2022-11-27T03:39:31.584Z,63.61
2022-11-27T03:42:25.026Z,63.57
2022-11-27T03:45:25.186Z,63.64
2022-11-27T03:48:24.021Z,63.92
2022-11-27T03:51:22.772Z,63.78
2022-11-27T03:54:20.489Z,64.03
2022-11-27T03:57:16.950Z,64.00
2022-11-27T04:00:08.117Z,65.02
2022-11-27T04:02:55.267Z,64.89
2022-11-27T04:05:42.277Z,64.83
2022-11-27T04:08:29.819Z,64.49
2022-11-27T04:11:17.246Z,64.35
2022-11-27T04:14:05.983Z,64.45
2022-11-27T04:16:52.802Z,64.40
2022-11-27T04:19:40.211Z,64.58
2022-11-27T04:22:27.159Z,64.53
2022-11-27T04:25:14.073Z,64.52
2022-11-27T04:28:00.736Z,64.72
2022-11-27T04:30:54.748Z,64.73
2022-11-27T04:33:41.694Z,65.11
2022-11-27T04:36:29.118Z,65.08
2022-11-27T04:39:16.106Z,64.67
2022-11-27T04:42:03.323Z,64.39
2022-11-27T04:44:50.755Z,64.32
2022-11-27T04:47:38.888Z,64.48
2022-11-27T04:50:26.010Z,64.74
2022-11-27T04:53:13.125Z,64.50
2022-11-27T04:55:59.933Z,64.46
2022-11-27T04:58:47.365Z,64.37
2022-11-27T05:01:34.555Z,64.30
2022-11-27T05:04:23.819Z,64.67
2022-11-27T05:07:10.682Z,64.36
2022-11-27T05:09:57.675Z,64.77
2022-11-27T05:12:44.552Z,64.79
2022-11-27T05:15:31.469Z,64.98
2022-11-27T05:18:18.290Z,64.67
2022-11-27T05:21:08.899Z,64.61
2022-11-27T05:23:55.819Z,64.32
2022-11-27T05:26:43.586Z,64.04
2022-11-27T05:29:30.867Z,63.99
2022-11-27T05:32:18.211Z,64.09
2022-11-27T05:35:05.507Z,64.17
2022-11-27T05:37:54.049Z,64.11
2022-11-27T05:40:41.068Z,64.00
2022-11-27T05:43:28.146Z,64.00
2022-11-27T05:46:17.913Z,63.91
2022-11-27T05:49:06.256Z,64.01
2022-11-27T05:51:52.811Z,64.46
2022-11-27T05:54:41.313Z,64.52
2022-11-27T05:57:28.478Z,64.50
2022-11-27T06:00:16.595Z,64.69
2022-11-27T06:03:04.204Z,64.41
2022-11-27T06:05:50.910Z,64.88
2022-11-27T06:08:38.615Z,64.98
2022-11-27T06:11:26.975Z,64.91
2022-11-27T06:14:14.471Z,64.80
2022-11-27T06:17:01.298Z,64.31
2022-11-27T06:19:48.614Z,64.42
2022-11-27T06:22:35.250Z,64.88
2022-11-27T06:25:22.692Z,65.37
2022-11-27T06:28:10.863Z,65.79
2022-11-27T06:33:45.445Z,65.47
2022-11-27T06:36:34.300Z,65.12
2022-11-27T06:39:21.050Z,65.32
2022-11-27T06:42:08.143Z,65.41
2022-11-27T06:44:56.579Z,65.46
2022-11-27T06:47:43.803Z,65.22
2022-11-27T06:50:30.579Z,65.28
2022-11-27T06:53:19.527Z,64.82
2022-11-27T06:56:08.581Z,64.45
2022-11-27T06:58:57.692Z,64.43
2022-11-27T07:01:45.801Z,64.60
2022-11-27T07:04:32.994Z,64.72
2022-11-27T07:07:20.052Z,64.67
2022-11-27T07:10:08.730Z,64.50
2022-11-27T07:12:55.574Z,64.65
2022-11-27T07:15:43.453Z,64.58
2022-11-27T07:18:32.365Z,64.67
2022-11-27T07:21:20.090Z,64.79
2022-11-27T07:24:07.974Z,64.84
2022-11-27T07:26:55.610Z,64.52
2022-11-27T07:29:42.836Z,64.49
2022-11-27T07:32:30.180Z,64.45
2022-11-27T07:35:18.871Z,64.26
2022-11-27T07:38:06.346Z,64.74
2022-11-27T07:40:53.982Z,64.81
2022-11-27T07:43:42.896Z,64.89
2022-11-27T07:46:30.918Z,65.11
2022-11-27T07:49:18.662Z,65.17
2022-11-27T07:52:07.540Z,65.17
2022-11-27T07:54:55.343Z,64.60
2022-11-27T07:57:42.955Z,64.07
2022-11-27T08:00:30.281Z,64.04
2022-11-27T08:03:17.593Z,63.77
2022-11-27T08:06:04.407Z,63.92
2022-11-27T08:08:54.908Z,64.08
2022-11-27T08:11:41.816Z,64.62
2022-11-27T08:14:29.253Z,64.91
2022-11-27T08:17:16.055Z,64.78
2022-11-27T08:20:04.328Z,64.87
2022-11-27T08:22:51.370Z,64.95
2022-11-27T08:25:40.113Z,64.83
2022-11-27T08:28:27.025Z,64.77
2022-11-27T08:31:15.598Z,64.89
2022-11-27T08:34:02.466Z,64.88
2022-11-27T08:36:49.655Z,64.51
2022-11-27T08:39:36.801Z,64.63
2022-11-27T08:42:25.630Z,64.46
2022-11-27T08:45:12.983Z,64.53
2022-11-27T08:48:00.439Z,64.47
2022-11-27T08:50:47.468Z,64.35
2022-11-27T08:53:36.006Z,63.93
2022-11-27T08:56:24.245Z,64.31
2022-11-27T08:59:13.314Z,63.87
2022-11-27T09:02:00.651Z,63.71
2022-11-27T09:04:47.966Z,63.79
2022-11-27T09:07:34.848Z,63.83
2022-11-27T09:10:22.726Z,63.79
2022-11-27T09:13:09.604Z,63.73
2022-11-27T09:15:58.720Z,64.04
2022-11-27T09:18:46.577Z,64.12
2022-11-27T09:21:33.787Z,63.98
2022-11-27T09:24:20.485Z,64.02
2022-11-27T09:27:08.192Z,64.15
2022-11-27T09:29:55.316Z,64.05
2022-11-27T09:32:44.083Z,63.11
2022-11-27T09:35:31.043Z,63.15
2022-11-27T09:38:18.605Z,63.18
2022-11-27T09:41:14.820Z,63.22
2022-11-27T09:44:07.618Z,63.37
2022-11-27T09:46:56.516Z,62.90
2022-11-27T09:49:50.623Z,61.86
2022-11-27T09:52:42.501Z,62.27
2022-11-27T09:55:33.726Z,62.40
2022-11-27T09:58:27.064Z,62.46
2022-11-27T10:01:16.329Z,62.47
2022-11-27T10:04:03.529Z,62.44
2022-11-27T10:07:10.756Z,62.39
2022-11-27T10:10:09.986Z,60.87
2022-11-27T10:13:05.701Z,61.68
2022-11-27T10:15:57.602Z,61.83
2022-11-27T10:18:51.542Z,62.08
2022-11-27T10:21:47.830Z,61.89
2022-11-27T10:24:47.631Z,61.63
2022-11-27T10:27:44.878Z,61.54
2022-11-27T10:30:34.050Z,61.96
2022-11-27T10:33:26.986Z,61.63
2022-11-27T10:36:16.726Z,61.81
2022-11-27T10:39:07.917Z,61.21
2022-11-27T10:42:02.719Z,61.35
2022-11-27T10:44:54.729Z,61.26
2022-11-27T10:47:44.140Z,61.16
2022-11-27T10:50:31.443Z,61.09
2022-11-27T10:53:27.026Z,61.13
2022-11-27T10:56:48.745Z,61.09
2022-11-27T10:59:42.607Z,59.19
2022-11-27T11:02:32.941Z,60.31
2022-11-27T11:05:40.982Z,60.51
2022-11-27T11:08:32.625Z,60.48
2022-11-27T11:11:27.025Z,60.47
2022-11-27T11:14:19.392Z,60.17
2022-11-27T11:17:18.503Z,60.11
2022-11-27T11:20:16.418Z,59.95
2022-11-27T11:23:03.342Z,59.68
2022-11-27T11:25:53.326Z,60.44
2022-11-27T11:28:50.046Z,60.79
2022-11-27T11:31:40.655Z,59.88
2022-11-27T11:34:31.089Z,60.41
2022-11-27T11:37:23.677Z,59.83
2022-11-27T11:40:27.835Z,59.92
2022-11-27T11:43:26.669Z,58.88
2022-11-27T11:46:19.787Z,59.23
2022-11-27T11:49:16.090Z,59.47
2022-11-27T11:52:26.521Z,60.22
2022-11-27T11:55:28.890Z,59.23
2022-11-27T11:58:41.001Z,59.35
2022-11-27T12:02:06.178Z,59.18
2022-11-27T12:05:21.638Z,59.46
2022-11-27T12:08:41.998Z,58.74
2022-11-27T12:11:37.095Z,58.85
2022-11-27T12:14:40.713Z,59.01
2022-11-27T12:17:43.237Z,58.62
2022-11-27T12:20:42.644Z,58.40
2022-11-27T12:23:59.589Z,58.81
2022-11-27T12:26:59.857Z,57.55
2022-11-27T12:30:13.273Z,59.10
2022-11-27T12:33:29.740Z,57.28
2022-11-27T12:36:29.205Z,57.69
2022-11-27T12:39:25.625Z,57.96
2022-11-27T12:42:22.275Z,58.71
2022-11-27T12:45:20.227Z,58.11
2022-11-27T12:48:15.799Z,58.55
2022-11-27T12:51:08.800Z,58.92
2022-11-27T12:54:01.792Z,59.19
2022-11-27T12:56:54.839Z,59.10
2022-11-27T12:59:47.472Z,59.07
2022-11-27T13:02:39.749Z,59.06
2022-11-27T13:05:30.733Z,58.77
2022-11-27T13:08:24.881Z,58.77
2022-11-27T13:11:14.775Z,58.00
2022-11-27T13:14:08.527Z,58.72
2022-11-27T13:16:59.635Z,58.54
2022-11-27T13:19:50.325Z,58.66
2022-11-27T13:22:38.162Z,58.45
2022-11-27T13:25:26.878Z,58.35
2022-11-27T13:28:25.324Z,58.75
2022-11-27T13:31:20.563Z,58.56
2022-11-27T13:34:12.664Z,58.07
2022-11-27T13:37:01.635Z,58.44
2022-11-27T13:39:49.449Z,58.50
2022-11-27T13:42:37.907Z,58.54
2022-11-27T13:45:29.191Z,58.71
2022-11-27T13:48:34.558Z,58.39
2022-11-27T13:51:28.423Z,57.83
2022-11-27T13:54:18.076Z,58.28
2022-11-27T13:57:14.139Z,58.71
2022-11-27T14:00:04.010Z,58.59
2022-11-27T14:03:03.548Z,58.52
2022-11-27T14:05:53.118Z,58.52
2022-11-27T14:08:40.142Z,58.68
2022-11-27T14:11:40.088Z,58.76
2022-11-27T14:14:29.702Z,58.44
2022-11-27T14:17:27.452Z,58.99
2022-11-27T14:20:26.553Z,57.99
2022-11-27T14:23:29.823Z,58.42
2022-11-27T14:26:24.009Z,58.64
2022-11-27T14:29:12.778Z,58.76
2022-11-27T14:32:01.438Z,58.92
2022-11-27T14:34:49.212Z,59.03
2022-11-27T14:37:36.576Z,59.07
2022-11-27T14:40:28.564Z,58.95
2022-11-27T14:43:17.367Z,59.07
2022-11-27T14:46:08.434Z,59.06
2022-11-27T14:48:57.154Z,59.17
2022-11-27T14:51:48.574Z,59.29
2022-11-27T14:54:40.174Z,59.48
2022-11-27T14:57:30.511Z,59.50
2022-11-27T15:00:19.435Z,59.62
2022-11-27T15:03:11.711Z,59.95
2022-11-27T15:06:00.387Z,59.76
2022-11-27T15:09:15.953Z,60.02
2022-11-27T15:12:01.745Z,60.10
2022-11-27T15:14:58.343Z,60.21
2022-11-27T15:17:49.916Z,60.08
2022-11-27T15:20:40.300Z,60.01
2022-11-27T15:23:29.216Z,59.87
2022-11-27T15:26:30.799Z,60.14
2022-11-27T15:29:36.080Z,59.66
2022-11-27T15:32:26.881Z,59.57
2022-11-27T15:35:16.039Z,59.89
2022-11-27T15:38:10.844Z,60.31
2022-11-27T15:41:01.722Z,60.41
2022-11-27T15:43:48.952Z,60.57
2022-11-27T15:46:36.357Z,60.67
2022-11-27T15:49:25.105Z,60.60
2022-11-27T15:52:11.727Z,60.70
2022-11-27T15:54:59.298Z,60.57
2022-11-27T15:57:46.226Z,60.78
2022-11-27T16:00:33.419Z,60.73
2022-11-27T16:03:22.487Z,60.95
2022-11-27T16:06:10.934Z,60.71
2022-11-27T16:08:59.093Z,60.54
2022-11-27T16:11:45.670Z,60.66
2022-11-27T16:14:32.928Z,60.79
2022-11-27T16:17:19.991Z,60.88
2022-11-27T16:20:08.891Z,60.89
2022-11-27T16:22:57.072Z,60.84
2022-11-27T16:25:44.427Z,60.90
2022-11-27T16:28:31.938Z,60.74
2022-11-27T16:31:19.470Z,60.79
2022-11-27T16:34:06.636Z,61.01
2022-11-27T16:36:53.827Z,61.11
2022-11-27T16:39:42.106Z,61.23
2022-11-27T16:42:29.899Z,61.36
2022-11-27T16:45:17.639Z,61.57
2022-11-27T16:48:05.588Z,61.48
2022-11-27T16:51:03.137Z,61.33
2022-11-27T16:53:52.693Z,61.32
2022-11-27T16:56:41.219Z,60.91
2022-11-27T16:59:28.870Z,60.61
2022-11-27T17:02:15.740Z,60.37
2022-11-27T17:05:03.368Z,60.46
2022-11-27T17:07:50.305Z,60.20
2022-11-27T17:10:37.856Z,60.20
2022-11-27T17:13:26.660Z,60.41
2022-11-27T17:16:13.963Z,60.07
2022-11-27T17:19:03.225Z,60.05
2022-11-27T17:21:51.102Z,60.15
2022-11-27T17:24:40.009Z,60.03
2022-11-27T17:27:27.437Z,59.72
2022-11-27T17:30:16.185Z,59.84
2022-11-27T17:33:03.544Z,59.65
2022-11-27T17:35:50.630Z,59.63
2022-11-27T17:38:38.148Z,59.47
2022-11-27T17:41:26.254Z,59.41
2022-11-27T17:44:14.321Z,59.40
2022-11-27T17:47:02.622Z,59.44
2022-11-27T17:49:50.152Z,59.57
2022-11-27T17:52:37.146Z,59.55
2022-11-27T17:55:24.364Z,59.46
2022-11-27T17:58:11.282Z,59.85
2022-11-27T18:00:58.805Z,60.09
2022-11-27T18:03:48.690Z,59.96
2022-11-27T18:06:36.066Z,60.01
2022-11-27T18:09:23.519Z,60.00
2022-11-27T18:12:10.424Z,59.99
2022-11-27T18:15:01.263Z,60.11
2022-11-27T18:17:49.008Z,60.13
2022-11-27T18:20:38.039Z,60.17
2022-11-27T18:23:25.028Z,60.13
2022-11-27T18:26:14.588Z,60.17
2022-11-27T18:29:03.077Z,60.16
2022-11-27T18:31:51.856Z,60.00
2022-11-27T18:34:39.397Z,60.00
2022-11-27T18:37:28.124Z,60.09
2022-11-27T18:40:15.341Z,60.06
2022-11-27T18:43:02.587Z,60.13
2022-11-27T18:45:49.567Z,60.26
2022-11-27T18:48:38.548Z,60.37
2022-11-27T18:51:26.621Z,60.26
2022-11-27T18:54:15.223Z,60.34
2022-11-27T18:57:02.388Z,60.39
2022-11-27T18:59:51.735Z,60.46
2022-11-27T19:02:46.912Z,60.45
2022-11-27T19:05:36.551Z,60.49
2022-11-27T19:08:23.550Z,60.48
2022-11-27T19:11:14.984Z,60.35
2022-11-27T19:14:02.595Z,60.42
2022-11-27T19:16:50.824Z,60.38
2022-11-27T19:19:54.696Z,60.30
2022-11-27T19:22:42.445Z,60.28
2022-11-27T19:25:30.174Z,60.61
2022-11-27T19:28:19.147Z,60.61
2022-11-27T19:31:07.418Z,60.82
2022-11-27T19:33:55.824Z,60.97
2022-11-27T19:36:42.961Z,60.95
2022-11-27T19:39:30.100Z,60.91
2022-11-27T19:42:17.125Z,60.94
2022-11-27T19:45:06.602Z,60.87
2022-11-27T19:47:53.739Z,61.06
2022-11-27T19:50:43.071Z,61.10
2022-11-27T19:53:30.018Z,60.99
2022-11-27T19:56:17.798Z,61.05
2022-11-27T19:59:06.059Z,61.12
2022-11-27T20:01:55.123Z,61.24
2022-11-27T20:04:44.869Z,61.57
2022-11-27T20:07:32.219Z,61.69
2022-11-27T20:10:20.026Z,61.69
2022-11-27T20:13:06.744Z,61.69
2022-11-27T20:15:55.470Z,61.49
2022-11-27T20:18:44.808Z,61.41
2022-11-27T20:21:32.651Z,61.46
2022-11-27T20:24:19.388Z,61.72
2022-11-27T20:27:06.859Z,61.66
2022-11-27T20:29:54.998Z,61.66
2022-11-27T20:32:42.641Z,61.74
2022-11-27T20:35:30.687Z,61.59
2022-11-27T20:38:17.975Z,61.39
2022-11-27T20:41:06.934Z,61.35
2022-11-27T20:43:56.312Z,61.33
2022-11-27T20:46:43.236Z,61.38
2022-11-27T20:49:33.764Z,61.51
2022-11-27T20:52:22.780Z,61.25
2022-11-27T20:55:10.509Z,61.21
2022-11-27T20:57:57.679Z,61.24
2022-11-27T21:00:44.912Z,61.23
2022-11-27T21:03:32.203Z,61.16
2022-11-27T21:06:23.097Z,61.01
2022-11-27T21:09:12.259Z,61.02
2022-11-27T21:11:59.579Z,61.10
2022-11-27T21:14:46.326Z,61.15
2022-11-27T21:17:33.345Z,61.15
2022-11-27T21:20:20.742Z,61.35
2022-11-27T21:23:07.972Z,61.48
2022-11-27T21:25:56.193Z,61.40
2022-11-27T21:28:43.752Z,61.40
2022-11-27T21:31:34.507Z,61.32
2022-11-27T21:34:25.193Z,61.20
2022-11-27T21:37:12.075Z,61.13
2022-11-27T21:39:59.594Z,61.07
2022-11-27T21:42:47.829Z,60.94
2022-11-27T21:45:37.442Z,60.88
2022-11-27T21:48:25.020Z,60.83
2022-11-27T21:51:15.100Z,60.72
2022-11-27T21:54:02.013Z,60.73
2022-11-27T21:56:52.702Z,60.61
2022-11-27T21:59:43.127Z,60.67
2022-11-27T22:02:30.009Z,60.68
2022-11-27T22:05:18.619Z,60.66
2022-11-27T22:08:05.995Z,60.68
2022-11-27T22:10:53.057Z,60.75
2022-11-27T22:13:41.091Z,60.73
2022-11-27T22:16:31.379Z,60.76
2022-11-27T22:19:18.298Z,60.75
2022-11-27T22:22:05.616Z,60.84
2022-11-27T22:24:52.314Z,60.84
2022-11-27T22:27:39.639Z,60.80
2022-11-27T22:30:26.873Z,60.68
2022-11-27T22:33:15.553Z,60.62
2022-11-27T22:36:11.795Z,60.59
2022-11-27T22:39:00.758Z,60.63
2022-11-27T22:41:47.557Z,60.60
2022-11-27T22:44:34.752Z,60.50
2022-11-27T22:47:22.057Z,60.53
2022-11-27T22:50:11.018Z,60.49
2022-11-27T22:52:58.423Z,60.52
2022-11-27T22:55:45.785Z,60.46
2022-11-27T22:58:35.165Z,60.40
2022-11-27T23:01:26.015Z,60.40
2022-11-27T23:04:13.099Z,60.40
2022-11-27T23:07:01.590Z,60.36
2022-11-27T23:09:48.292Z,60.39
2022-11-27T23:12:35.768Z,60.42
2022-11-27T23:15:22.559Z,60.56
2022-11-27T23:18:10.225Z,60.64
2022-11-27T23:20:56.782Z,60.68
2022-11-27T23:23:45.469Z,60.73
2022-11-27T23:26:32.901Z,60.72
2022-11-27T23:29:20.133Z,60.82
2022-11-27T23:32:06.942Z,60.81
2022-11-27T23:34:54.239Z,60.82
2022-11-27T23:37:41.744Z,60.82
2022-11-27T23:40:30.576Z,60.83
2022-11-27T23:43:16.993Z,60.80
2022-11-27T23:46:04.806Z,60.77
2022-11-27T23:48:51.443Z,60.70
2022-11-27T23:51:38.841Z,60.68
2022-11-27T23:54:25.718Z,60.68
2022-11-27T23:57:14.383Z,60.70
